Time;durP1;ratioP1;P1;durP2;ratioP2;P2;SDS_P1;SDS_P2;PMS_P1;PMS_P2;Temp;Humidity;BMP_temperature;BMP_pressure;BME280_temperature;BME280_humidity;BME280_pressure;Samples;Min_cycle;Max_cycle;Signal;HPM_P1;HPM_P2
2022/01/05 00:01:42;;;;;;;0.30;0.30;;;3.90;99.90;2.90;97806;;;;555488;254;24108;-74
2022/01/05 00:04:10;;;;;;;0.20;0.20;;;3.80;99.90;2.70;97809;;;;549470;257;24216;-76
2022/01/05 00:06:37;;;;;;;0.60;0.50;;;3.70;99.90;2.50;97812;;;;545417;259;24181;-74
2022/01/05 00:09:06;;;;;;;1.33;0.57;;;3.40;99.90;2.40;97809;;;;542280;256;24162;-74
2022/01/05 00:11:34;;;;;;;1.87;0.50;;;3.40;99.90;2.40;97809;;;;554948;254;24110;-77
2022/01/05 00:14:02;;;;;;;0.50;0.50;;;3.30;99.90;2.40;97810;;;;552877;253;24182;-75
2022/01/05 00:16:30;;;;;;;0.50;0.50;;;3.30;99.90;2.40;97814;;;;554922;254;24136;-76
2022/01/05 00:18:58;;;;;;;0.60;0.60;;;3.30;99.90;2.30;97816;;;;542017;256;24158;-76
2022/01/05 00:21:26;;;;;;;0.60;0.60;;;3.20;99.90;2.20;97807;;;;554892;254;24127;-75
2022/01/05 00:23:54;;;;;;;2.80;1.00;;;3.10;99.90;2.10;97806;;;;542221;256;24143;-75
2022/01/05 00:26:25;;;;;;;0.73;0.70;;;2.90;99.90;1.90;97811;;;;554918;254;24107;-74
2022/01/05 00:28:51;;;;;;;6.17;0.87;;;2.90;99.90;1.80;97811;;;;541813;252;24199;-74
2022/01/05 00:31:19;;;;;;;1.87;0.70;;;2.80;99.90;1.70;97811;;;;555188;254;24155;-74
2022/01/05 00:33:47;;;;;;;1.07;0.77;;;2.70;99.90;1.60;97814;;;;542192;257;24153;-75
2022/01/05 00:36:14;;;;;;;1.43;0.90;;;2.60;99.90;1.40;97820;;;;555237;254;24069;-75
2022/01/05 00:38:42;;;;;;;1.90;0.80;;;2.50;99.90;1.30;97820;;;;554898;254;24152;-75
2022/01/05 00:41:10;;;;;;;3.00;0.30;;;2.40;99.90;1.30;97835;;;;548757;257;24171;-76
2022/01/05 00:43:38;;;;;;;0.87;0.67;;;2.30;99.90;1.20;97832;;;;544872;259;24166;-77
2022/01/05 00:46:06;;;;;;;2.40;0.83;;;2.20;99.90;1.20;97829;;;;545361;257;24263;-74
2022/01/05 00:48:35;;;;;;;0.97;0.90;;;2.20;99.90;1.20;97828;;;;556368;252;24110;-75
2022/01/05 00:51:02;;;;;;;0.93;0.50;;;2.20;99.90;1.20;97820;;;;563938;246;24074;-74
2022/01/05 00:53:33;;;;;;;0.30;0.30;;;2.10;99.90;1.10;97827;;;;557384;253;24140;-74
2022/01/05 00:55:58;;;;;;;3.17;0.57;;;2.10;99.90;1.10;97834;;;;545237;259;24156;-76
2022/01/05 00:58:26;;;;;;;0.77;0.60;;;2.10;99.90;1.00;97839;;;;563540;252;24160;-76
2022/01/05 01:00:57;;;;;;;2.20;0.70;;;2.00;99.90;0.90;97840;;;;555407;254;24125;-75
2022/01/05 01:03:22;;;;;;;8.87;0.80;;;1.90;99.90;0.80;97838;;;;555469;250;24116;-74
2022/01/05 01:05:50;;;;;;;3.95;1.20;;;1.90;99.90;0.70;97846;;;;547669;254;45955;-74
2022/01/05 01:08:18;;;;;;;3.63;1.40;;;1.80;99.90;0.70;97843;;;;549151;257;24246;-75
2022/01/05 01:10:49;;;;;;;1.40;0.60;;;1.60;99.90;0.60;97850;;;;545053;259;24134;-74
2022/01/05 01:13:16;;;;;;;0.43;0.43;;;1.60;99.90;0.50;97848;;;;555385;253;24129;-74
2022/01/05 01:15:42;;;;;;;0.40;0.40;;;1.60;99.90;0.40;97845;;;;548962;257;24284;-74
2022/01/05 01:18:10;;;;;;;0.80;0.80;;;1.50;99.90;0.40;97849;;;;538908;259;24162;-74
2022/01/05 01:20:38;;;;;;;1.40;0.47;;;1.40;99.90;0.30;97854;;;;542169;256;24133;-75
2022/01/05 01:23:06;;;;;;;3.33;0.90;;;1.40;99.90;0.30;97844;;;;550259;254;35305;-75
2022/01/05 01:25:34;;;;;;;2.87;1.10;;;1.40;99.90;0.20;97843;;;;554943;254;24145;-74
2022/01/05 01:28:02;;;;;;;3.67;0.53;;;1.30;99.90;0.10;97844;;;;563089;253;24074;-74
2022/01/05 01:30:31;;;;;;;2.00;1.07;;;1.20;99.90;0.10;97857;;;;549020;257;24196;-74
2022/01/05 01:32:58;;;;;;;4.47;1.00;;;1.20;99.90;0.10;97865;;;;553091;254;24139;-73
2022/01/05 01:35:26;;;;;;;4.90;0.67;;;1.10;99.90;0.10;97863;;;;545085;258;24217;-74
2022/01/05 01:37:57;;;;;;;3.67;0.90;;;1.20;99.90;0.00;97869;;;;553753;257;24202;-74
2022/01/05 01:40:22;;;;;;;1.47;1.33;;;1.10;99.90;0.00;97869;;;;554399;254;24124;-74
2022/01/05 01:42:54;;;;;;;4.47;0.83;;;1.10;99.90;0.00;97854;;;;544617;259;24172;-74
2022/01/05 01:45:19;;;;;;;1.87;0.80;;;1.10;99.90;0.10;97861;;;;545422;259;24281;-75
2022/01/05 01:47:47;;;;;;;2.10;0.70;;;1.10;99.90;0.00;97861;;;;554916;254;24153;-74
2022/01/05 01:50:19;;;;;;;1.67;0.90;;;1.10;99.90;0.00;97866;;;;553297;256;24144;-75
2022/01/05 01:52:44;;;;;;;5.37;1.63;;;1.10;99.90;0.00;97866;;;;554793;254;24133;-76
2022/01/05 01:55:12;;;;;;;1.90;1.00;;;1.10;99.90;0.00;97870;;;;553389;256;24143;-74
2022/01/05 01:57:43;;;;;;;5.30;1.10;;;1.10;99.90;0.00;97873;;;;554781;252;24188;-74
2022/01/05 02:00:08;;;;;;;3.60;0.83;;;1.10;99.90;0.00;97869;;;;556429;253;24091;-75
2022/01/05 02:02:36;;;;;;;5.90;1.63;;;1.10;99.90;0.10;97875;;;;557806;253;24206;-75
2022/01/05 02:05:03;;;;;;;4.23;0.93;;;1.10;99.90;0.10;97879;;;;539332;259;24159;-75
2022/01/05 02:07:31;;;;;;;0.30;0.30;;;1.20;99.90;0.20;97879;;;;545928;257;25183;-76
2022/01/05 02:09:59;;;;;;;4.03;1.10;;;1.30;99.90;0.30;97878;;;;555260;254;24135;-74
2022/01/05 02:12:28;;;;;;;6.53;0.93;;;1.30;99.90;0.30;97895;;;;563631;250;24129;-74
2022/01/05 02:14:55;;;;;;;0.83;0.60;;;1.40;99.90;0.30;97887;;;;563537;246;24110;-74
2022/01/05 02:17:40;;;;;;;10.03;1.53;;;1.30;99.90;0.20;97891;;;;557225;257;24177;-73
2022/01/05 02:19:52;;;;;;;1.00;0.90;;;1.30;99.90;0.20;97893;;;;543209;259;24148;-74
2022/01/05 02:22:20;;;;;;;3.67;1.13;;;1.20;99.90;0.10;97889;;;;542195;256;24181;-74
2022/01/05 02:24:48;;;;;;;3.83;0.80;;;1.20;99.90;0.10;97893;;;;555105;254;24198;-75
2022/01/05 02:27:16;;;;;;;1.03;0.70;;;1.20;99.90;0.00;97897;;;;542193;257;25194;-75
2022/01/05 02:29:45;;;;;;;2.00;0.90;;;1.10;99.90;0.00;97910;;;;552614;254;24149;-76
2022/01/05 02:32:12;;;;;;;6.80;0.97;;;1.10;99.90;0.00;97908;;;;555435;251;24105;-76
2022/01/05 02:34:40;;;;;;;1.60;0.50;;;1.10;99.90;-0.10;97905;;;;557370;253;24152;-77
2022/01/05 02:37:08;;;;;;;4.10;1.17;;;1.00;99.90;-0.20;97904;;;;545343;259;24193;-76
2022/01/05 02:39:36;;;;;;;0.60;0.60;;;1.00;99.90;-0.20;97909;;;;564467;248;24125;-78
2022/01/05 02:42:06;;;;;;;6.23;1.00;;;0.90;99.90;-0.30;97915;;;;548971;257;24145;-77
2022/01/05 02:44:31;;;;;;;3.97;1.53;;;0.90;99.90;-0.30;97931;;;;552606;259;24205;-77
2022/01/05 02:47:00;;;;;;;1.13;0.77;;;0.80;99.90;-0.30;97933;;;;541971;257;24194;-78
2022/01/05 02:49:27;;;;;;;1.60;0.70;;;0.80;99.90;-0.30;97937;;;;554851;254;24179;-76
2022/01/05 02:51:55;;;;;;;2.83;1.10;;;0.80;99.90;-0.20;97943;;;;541849;259;24136;-76
2022/01/05 02:54:23;;;;;;;1.00;0.87;;;0.90;99.90;-0.10;97938;;;;554917;254;24162;-75
2022/01/05 02:56:53;;;;;;;3.77;0.90;;;1.00;99.90;0.00;97945;;;;541906;256;24162;-77
2022/01/05 02:59:19;;;;;;;0.43;0.43;;;1.10;99.90;0.20;97952;;;;554852;254;24177;-74
2022/01/05 03:01:47;;;;;;;6.65;1.50;;;1.40;99.90;0.40;97952;;;;537127;258;35520;-75
2022/01/05 03:04:15;;;;;;;8.13;1.17;;;1.40;99.90;0.60;97949;;;;555057;254;24124;-75
2022/01/05 03:06:44;;;;;;;1.53;1.03;;;1.70;99.90;0.70;97943;;;;541966;257;24200;-75
2022/01/05 03:09:12;;;;;;;8.43;1.83;;;1.70;99.90;0.80;97941;;;;555035;254;24148;-76
2022/01/05 03:11:41;;;;;;;5.03;1.80;;;2.00;99.90;0.90;97952;;;;538718;258;46525;-75
2022/01/05 03:14:08;;;;;;;4.40;1.53;;;1.90;99.90;1.00;97954;;;;556110;254;24172;-74
2022/01/05 03:16:36;;;;;;;3.50;1.20;;;2.10;99.90;1.10;97957;;;;542847;257;24159;-77
2022/01/05 03:19:05;;;;;;;5.43;0.77;;;2.20;99.90;1.20;97956;;;;555810;254;24112;-77
2022/01/05 03:21:32;;;;;;;1.17;1.10;;;2.20;99.90;1.20;97950;;;;542765;251;24148;-77
2022/01/05 03:24:00;;;;;;;0.63;0.63;;;2.30;99.90;1.20;97952;;;;555764;254;24204;-76
2022/01/05 03:26:28;;;;;;;2.03;1.07;;;2.30;99.90;1.30;97945;;;;542703;256;24183;-76
2022/01/05 03:28:56;;;;;;;3.00;1.10;;;2.30;99.90;1.30;97940;;;;555543;254;24154;-76
2022/01/05 03:31:25;;;;;;;3.67;0.60;;;2.30;99.90;1.20;97936;;;;542158;256;24153;-76
2022/01/05 03:33:52;;;;;;;5.70;1.20;;;2.30;99.90;1.10;97935;;;;555294;254;24121;-75
2022/01/05 03:36:20;;;;;;;5.93;1.70;;;2.20;99.90;1.00;97935;;;;549107;257;24163;-76
2022/01/05 03:38:48;;;;;;;5.63;1.50;;;2.10;99.90;0.90;97935;;;;545096;259;24200;-76
2022/01/05 03:41:20;;;;;;;3.17;1.10;;;2.00;99.90;0.90;97936;;;;542193;257;24193;-76
2022/01/05 03:43:44;;;;;;;2.43;0.87;;;2.00;99.90;0.80;97928;;;;554871;254;24128;-74
2022/01/05 03:46:12;;;;;;;2.00;1.17;;;1.90;99.90;0.80;97923;;;;563306;253;24102;-74
2022/01/05 03:48:41;;;;;;;2.83;1.23;;;1.80;99.90;0.70;97929;;;;548866;257;24146;-74
2022/01/05 03:51:08;;;;;;;2.10;0.63;;;1.70;99.90;0.60;97924;;;;538560;259;24148;-74
2022/01/05 03:53:37;;;;;;;2.83;1.20;;;1.70;99.90;0.60;97919;;;;544930;259;24247;-74
2022/01/05 03:56:05;;;;;;;2.23;1.17;;;1.60;99.90;0.60;97922;;;;554872;254;24119;-73
2022/01/05 03:58:33;;;;;;;1.13;1.13;;;1.60;99.90;0.60;97920;;;;544949;259;24135;-74
2022/01/05 04:01:01;;;;;;;1.27;0.93;;;1.60;99.90;0.60;97912;;;;554919;254;24121;-74
2022/01/05 04:03:29;;;;;;;4.40;0.80;;;1.70;99.90;0.60;97912;;;;555003;254;24166;-74
2022/01/05 04:05:57;;;;;;;4.77;1.27;;;1.70;99.90;0.70;97911;;;;548937;257;24170;-75
2022/01/05 04:08:25;;;;;;;1.20;0.83;;;1.70;99.90;0.60;97911;;;;544894;259;24206;-74
2022/01/05 04:10:52;;;;;;;2.00;1.00;;;1.70;99.90;0.60;97914;;;;542307;257;24172;-77
2022/01/05 04:13:20;;;;;;;5.87;0.93;;;1.70;99.90;0.60;97916;;;;555277;254;24121;-75
2022/01/05 04:15:48;;;;;;;5.10;1.20;;;1.70;99.90;0.60;97912;;;;542327;256;24166;-75
2022/01/05 04:18:16;;;;;;;2.33;1.50;;;1.70;99.90;0.60;97914;;;;555261;254;24096;-76
2022/01/05 04:20:44;;;;;;;2.20;0.97;;;1.70;99.90;0.50;97924;;;;542233;259;24137;-77
2022/01/05 04:23:13;;;;;;;2.17;1.23;;;1.60;99.90;0.50;97918;;;;556698;252;24097;-77
2022/01/05 04:25:41;;;;;;;7.27;2.10;;;1.60;99.90;0.50;97921;;;;565393;252;24154;-76
2022/01/05 04:28:09;;;;;;;11.87;1.40;;;1.50;99.90;0.50;97919;;;;549971;257;24165;-75
2022/01/05 04:30:37;;;;;;;4.87;1.37;;;1.50;99.90;0.50;97918;;;;545507;259;24146;-74
2022/01/05 04:33:05;;;;;;;0.97;0.97;;;1.50;99.90;0.50;97916;;;;542529;256;24185;-77
2022/01/05 04:35:33;;;;;;;0.83;0.83;;;1.50;99.90;0.50;97920;;;;552604;254;24110;-75
2022/01/05 04:38:01;;;;;;;3.90;2.07;;;1.50;99.90;0.50;97923;;;;542279;256;24173;-76
2022/01/05 04:40:31;;;;;;;5.20;1.20;;;1.50;99.90;0.40;97922;;;;555242;254;24165;-77
2022/01/05 04:42:57;;;;;;;3.00;1.60;;;1.50;99.90;0.40;97915;;;;542152;256;24166;-76
2022/01/05 04:45:25;;;;;;;3.20;1.60;;;1.40;99.90;0.30;97916;;;;555136;254;24141;-75
2022/01/05 04:47:53;;;;;;;4.97;2.50;;;1.40;99.90;0.30;97914;;;;542166;256;24166;-74
2022/01/05 04:50:21;;;;;;;7.17;1.17;;;1.40;99.90;0.30;97907;;;;555228;254;24107;-75
2022/01/05 04:52:49;;;;;;;1.80;1.40;;;1.30;99.90;0.20;97897;;;;542231;257;24210;-75
2022/01/05 04:55:17;;;;;;;1.60;1.23;;;1.30;99.90;0.20;97887;;;;555087;254;24153;-75
2022/01/05 04:57:46;;;;;;;7.93;1.60;;;1.30;99.90;0.20;97893;;;;542126;256;24178;-75
2022/01/05 05:00:13;;;;;;;4.67;1.67;;;1.20;99.90;0.20;97902;;;;552034;254;24117;-76
2022/01/05 05:02:42;;;;;;;5.40;0.77;;;1.30;99.90;0.20;97898;;;;564303;253;24063;-76
2022/01/05 05:05:10;;;;;;;8.80;1.37;;;1.30;99.90;0.20;97891;;;;548867;257;24156;-75
2022/01/05 05:07:38;;;;;;;5.60;1.37;;;1.30;99.90;0.20;97899;;;;544874;259;24166;-75
2022/01/05 05:10:06;;;;;;;1.17;0.70;;;1.30;99.90;0.20;97898;;;;542236;256;24141;-75
2022/01/05 05:12:34;;;;;;;3.80;1.00;;;1.30;99.90;0.20;97896;;;;555148;254;24168;-75
2022/01/05 05:15:05;;;;;;;8.40;1.67;;;1.20;99.90;0.20;97889;;;;542262;256;24159;-74
2022/01/05 05:17:29;;;;;;;2.63;1.40;;;1.20;99.90;0.20;97899;;;;554985;254;24164;-74
2022/01/05 05:19:57;;;;;;;1.73;1.37;;;1.20;99.90;0.20;97900;;;;542561;256;24132;-72
2022/01/05 05:22:25;;;;;;;2.03;1.40;;;1.20;99.90;0.20;97896;;;;555261;254;24101;-74
2022/01/05 05:24:53;;;;;;;1.93;0.90;;;1.20;99.90;0.10;97892;;;;555275;254;24067;-75
2022/01/05 05:27:24;;;;;;;8.67;1.60;;;1.20;99.90;0.10;97896;;;;549188;257;24159;-74
2022/01/05 05:29:49;;;;;;;8.50;1.33;;;1.20;99.90;0.10;97901;;;;545725;259;24181;-73
2022/01/05 05:32:18;;;;;;;3.70;1.20;;;1.20;99.90;0.10;97895;;;;552925;257;24173;-73
2022/01/05 05:34:46;;;;;;;7.50;1.70;;;1.20;99.90;0.10;97896;;;;543402;258;24132;-73
2022/01/05 05:37:17;;;;;;;6.13;1.43;;;1.20;99.90;0.20;97896;;;;555727;254;24167;-73
2022/01/05 05:39:45;;;;;;;1.77;1.67;;;1.20;99.90;0.20;97900;;;;542657;255;24176;-73
2022/01/05 05:42:14;;;;;;;1.30;1.20;;;1.20;99.90;0.20;97894;;;;552667;254;24141;-75
2022/01/05 05:44:44;;;;;;;2.63;1.37;;;1.20;99.90;0.20;97902;;;;542407;255;24148;-75
2022/01/05 05:47:09;;;;;;;7.73;2.30;;;1.30;99.90;0.20;97909;;;;563315;253;24107;-75
2022/01/05 05:49:37;;;;;;;2.53;1.67;;;1.30;99.90;0.20;97921;;;;563753;250;24067;-76
2022/01/05 05:52:05;;;;;;;5.83;1.83;;;1.20;99.90;0.20;97928;;;;555186;254;24468;-75
2022/01/05 05:54:33;;;;;;;3.83;1.23;;;1.20;99.90;0.20;97928;;;;549082;257;24141;-76
2022/01/05 05:57:01;;;;;;;2.33;1.50;;;1.20;99.90;0.20;97922;;;;553127;258;24158;-75
2022/01/05 05:59:29;;;;;;;5.50;1.37;;;1.30;99.90;0.20;97914;;;;542108;257;24194;-76
2022/01/05 06:01:57;;;;;;;2.73;1.50;;;1.30;99.90;0.20;97931;;;;555186;254;24098;-75
2022/01/05 06:04:25;;;;;;;3.60;1.00;;;1.30;99.90;0.20;97928;;;;542120;257;24179;-76
2022/01/05 06:06:52;;;;;;;8.52;2.50;;;1.30;99.90;0.30;97939;;;;550109;254;46268;-75
2022/01/05 06:09:21;;;;;;;5.17;1.97;;;1.30;99.90;0.30;97931;;;;542332;256;24179;-77
2022/01/05 06:11:49;;;;;;;4.53;1.80;;;1.30;99.90;0.20;97922;;;;555227;254;24123;-76
2022/01/05 06:14:18;;;;;;;8.43;2.58;;;1.30;99.90;0.20;97925;;;;548857;256;46509;-76
2022/01/05 06:16:46;;;;;;;2.13;1.37;;;1.30;99.90;0.20;97933;;;;555209;254;24163;-77
2022/01/05 06:19:14;;;;;;;13.20;1.50;;;1.30;99.90;0.20;97929;;;;542267;256;24111;-74
2022/01/05 06:21:44;;;;;;;6.17;1.43;;;1.30;99.90;0.20;97937;;;;555170;254;24106;-75
2022/01/05 06:24:09;;;;;;;6.33;1.80;;;1.30;99.90;0.10;97937;;;;547690;257;24184;-74
2022/01/05 06:26:38;;;;;;;9.33;1.67;;;1.20;99.90;0.10;97941;;;;545142;259;24213;-75
2022/01/05 06:29:10;;;;;;;4.17;1.43;;;1.20;99.90;0.10;97947;;;;542146;256;24188;-74
2022/01/05 06:31:34;;;;;;;5.30;1.73;;;1.20;99.90;0.10;97948;;;;554656;254;25156;-74
2022/01/05 06:34:02;;;;;;;5.97;1.73;;;1.20;99.90;0.20;97956;;;;541876;256;24130;-73
2022/01/05 06:36:30;;;;;;;2.73;1.50;;;1.20;99.90;0.20;97956;;;;552732;254;24152;-74
2022/01/05 06:38:57;;;;;;;2.73;1.70;;;1.20;99.90;0.20;97954;;;;541936;256;24169;-74
2022/01/05 06:41:25;;;;;;;8.83;2.10;;;1.20;99.90;0.20;97967;;;;554829;254;24152;-74
2022/01/05 06:43:53;;;;;;;10.67;2.47;;;1.30;99.90;0.20;97962;;;;541949;256;24140;-75
2022/01/05 06:46:25;;;;;;;4.83;2.03;;;1.30;99.90;0.20;97958;;;;556235;254;24146;-75
2022/01/05 06:48:50;;;;;;;10.17;3.37;;;1.20;99.90;0.20;97957;;;;559729;254;45356;-75
2022/01/05 06:51:21;;;;;;;4.70;2.03;;;1.20;99.90;0.20;97949;;;;549579;257;24151;-75
2022/01/05 06:53:46;;;;;;;7.73;1.90;;;1.20;99.90;0.10;97944;;;;538872;259;25196;-74
2022/01/05 06:56:15;;;;;;;4.47;1.80;;;1.20;99.90;0.20;97947;;;;542380;255;24185;-78
2022/01/05 06:58:43;;;;;;;4.17;2.10;;;1.30;99.90;0.20;97948;;;;555076;254;24110;-75
2022/01/05 07:01:11;;;;;;;6.07;2.60;;;1.20;99.90;0.20;97949;;;;542426;255;24235;-75
2022/01/05 07:03:39;;;;;;;4.17;1.80;;;1.30;99.90;0.20;97939;;;;555092;254;24108;-75
2022/01/05 07:06:07;;;;;;;10.00;2.17;;;1.30;99.90;0.20;97946;;;;542086;256;24141;-76
2022/01/05 07:08:35;;;;;;;5.50;1.40;;;1.20;99.90;0.10;97940;;;;555176;254;24129;-75
2022/01/05 07:11:03;;;;;;;3.20;1.80;;;1.20;99.90;0.10;97944;;;;542115;256;24180;-75
2022/01/05 07:13:31;;;;;;;7.73;2.40;;;1.10;99.90;0.00;97941;;;;555248;254;24179;-76
2022/01/05 07:16:00;;;;;;;2.53;2.00;;;1.00;99.90;0.00;97930;;;;542128;256;24200;-75
2022/01/05 07:18:28;;;;;;;5.40;2.77;;;1.00;99.90;-0.10;97945;;;;555219;254;24157;-76
2022/01/05 07:20:56;;;;;;;7.77;3.73;;;1.00;99.90;-0.10;97952;;;;541967;256;24151;-76
2022/01/05 07:23:24;;;;;;;4.87;2.70;;;0.90;99.90;-0.20;97942;;;;554757;254;27353;-75
2022/01/05 07:25:51;;;;;;;4.27;2.53;;;0.90;99.90;-0.20;97947;;;;542309;256;24166;-78
2022/01/05 07:28:19;;;;;;;4.00;2.67;;;0.90;99.90;-0.30;97943;;;;555314;254;24142;-75
2022/01/05 07:30:47;;;;;;;9.00;2.50;;;0.80;99.90;-0.30;97952;;;;542012;256;24134;-75
2022/01/05 07:33:15;;;;;;;4.87;2.87;;;0.80;99.90;-0.30;97950;;;;554966;254;24148;-75
2022/01/05 07:35:43;;;;;;;6.57;2.63;;;0.80;99.90;-0.40;97951;;;;553295;256;24122;-76
2022/01/05 07:38:11;;;;;;;8.73;2.93;;;0.70;99.90;-0.40;97948;;;;554953;254;24163;-76
2022/01/05 07:40:39;;;;;;;7.30;3.57;;;0.70;99.90;-0.40;97963;;;;541974;256;24217;-75
2022/01/05 07:43:07;;;;;;;10.63;4.77;;;0.70;99.90;-0.40;97971;;;;555040;254;24106;-75
2022/01/05 07:45:38;;;;;;;5.87;3.50;;;0.70;99.90;-0.40;97973;;;;541930;256;24149;-76
2022/01/05 07:48:03;;;;;;;7.23;3.33;;;0.70;99.90;-0.40;97967;;;;554974;253;24131;-76
2022/01/05 07:50:32;;;;;;;8.43;3.67;;;0.70;99.90;-0.30;97960;;;;563401;250;24125;-75
2022/01/05 07:53:04;;;;;;;9.17;4.57;;;0.70;99.90;-0.30;97954;;;;557311;252;24151;-76
2022/01/05 07:55:30;;;;;;;6.10;3.20;;;0.80;99.90;-0.30;97958;;;;545214;258;24274;-75
2022/01/05 07:57:59;;;;;;;8.67;3.40;;;0.80;99.90;-0.20;97948;;;;556066;256;24160;-76
2022/01/05 08:00:27;;;;;;;12.67;4.13;;;0.80;99.90;-0.20;97956;;;;556240;254;24063;-76
2022/01/05 08:02:55;;;;;;;8.60;3.50;;;0.90;99.90;-0.10;97978;;;;556016;254;24069;-75
2022/01/05 08:05:23;;;;;;;11.77;4.63;;;1.00;99.90;0.10;97974;;;;549917;257;24203;-75
2022/01/05 08:07:51;;;;;;;8.30;3.23;;;1.30;99.90;0.20;97975;;;;545506;259;24151;-75
2022/01/05 08:10:19;;;;;;;6.83;3.47;;;1.20;99.90;0.40;97972;;;;542497;255;24249;-76
2022/01/05 08:12:48;;;;;;;5.73;3.73;;;1.60;99.90;0.50;97973;;;;555486;254;24101;-74
2022/01/05 08:15:16;;;;;;;11.17;4.50;;;1.60;99.90;0.60;97968;;;;542252;255;24169;-74
2022/01/05 08:17:44;;;;;;;4.63;2.70;;;1.70;99.90;0.70;97959;;;;555253;254;24106;-75
2022/01/05 08:20:12;;;;;;;8.47;4.40;;;1.80;99.90;0.80;97953;;;;545218;259;24154;-75
2022/01/05 08:22:42;;;;;;;6.87;3.33;;;1.80;99.90;0.90;97963;;;;555085;254;25202;-75
2022/01/05 08:25:10;;;;;;;5.90;2.77;;;1.90;99.90;0.90;97966;;;;555221;253;24063;-74
2022/01/05 08:27:45;;;;;;;8.07;4.13;;;2.00;99.90;0.90;97961;;;;563220;250;24127;-74
2022/01/05 08:30:06;;;;;;;13.77;4.53;;;2.00;99.90;1.00;97960;;;;562860;254;24078;-75
2022/01/05 08:32:34;;;;;;;5.50;3.90;;;2.00;99.90;1.00;97959;;;;549271;257;24188;-75
2022/01/05 08:35:02;;;;;;;10.13;3.50;;;2.00;99.90;1.10;97965;;;;545152;259;24162;-74
2022/01/05 08:37:30;;;;;;;5.77;3.70;;;2.10;99.90;1.20;97957;;;;545220;259;24145;-75
2022/01/05 08:39:58;;;;;;;6.37;3.87;;;2.40;99.90;1.40;97961;;;;555231;254;24102;-75
2022/01/05 08:42:26;;;;;;;8.27;3.73;;;2.40;99.90;1.60;97963;;;;563385;253;24114;-74
2022/01/05 08:44:54;;;;;;;10.30;4.27;;;2.60;99.90;1.80;97962;;;;555366;254;24103;-75
2022/01/05 08:47:22;;;;;;;14.10;3.40;;;2.80;99.90;2.00;97961;;;;542226;256;24141;-74
2022/01/05 08:49:50;;;;;;;6.70;3.17;;;3.00;99.90;2.10;97966;;;;555130;254;24157;-74
2022/01/05 08:52:18;;;;;;;9.00;3.80;;;3.10;99.90;2.20;97971;;;;554781;254;24079;-74
2022/01/05 08:54:47;;;;;;;11.70;4.13;;;3.20;99.90;2.20;97975;;;;548856;257;24136;-75
2022/01/05 08:57:14;;;;;;;6.10;2.67;;;3.20;99.90;2.20;97970;;;;544888;259;24185;-74
2022/01/05 08:59:43;;;;;;;8.07;3.43;;;3.20;99.90;2.10;97969;;;;563212;245;24136;-75
2022/01/05 09:02:15;;;;;;;3.90;2.63;;;3.10;99.90;2.10;97953;;;;562895;254;24074;-74
2022/01/05 09:04:39;;;;;;;6.27;1.97;;;3.10;99.90;2.10;97959;;;;548730;257;24167;-75
2022/01/05 09:07:07;;;;;;;6.73;2.30;;;3.20;99.90;2.20;97965;;;;544831;259;24170;-74
2022/01/05 09:09:35;;;;;;;8.47;2.73;;;3.20;99.90;2.30;97960;;;;546193;259;24193;-74
2022/01/05 09:12:02;;;;;;;3.63;3.10;;;3.20;99.90;2.40;97952;;;;555861;254;24177;-75
2022/01/05 09:14:30;;;;;;;5.40;2.80;;;3.40;99.90;2.50;97953;;;;564717;254;24122;-75
2022/01/05 09:16:58;;;;;;;2.67;1.80;;;3.50;99.90;2.60;97948;;;;548075;257;24162;-74
2022/01/05 09:19:28;;;;;;;7.37;2.13;;;3.60;99.90;2.70;97957;;;;543381;259;24149;-76
2022/01/05 09:21:54;;;;;;;8.50;2.13;;;3.70;99.90;2.80;97962;;;;542962;251;24166;-75
2022/01/05 09:24:22;;;;;;;8.70;2.83;;;3.80;99.90;2.90;97969;;;;555259;254;24125;-75
2022/01/05 09:26:50;;;;;;;4.90;2.70;;;3.90;99.90;3.00;97964;;;;545517;259;24216;-75
2022/01/05 09:29:21;;;;;;;4.90;2.23;;;3.90;99.90;3.00;97963;;;;545128;259;24153;-75
2022/01/05 09:31:46;;;;;;;5.20;2.17;;;4.00;99.90;3.10;97967;;;;555248;254;24143;-76
2022/01/05 09:34:14;;;;;;;2.10;1.83;;;4.00;99.90;3.10;97961;;;;553441;257;24178;-77
2022/01/05 09:36:48;;;;;;;3.17;1.47;;;4.10;99.90;2.90;97965;;;;555544;254;25163;-75
2022/01/05 09:42:05;;;;;;;5.78;2.78;;;3.80;99.90;2.60;97964;;;;550684;254;35564;-75
2022/01/05 09:44:30;;;;;;;11.07;2.20;;;3.60;99.90;2.50;97968;;;;542645;252;24145;-76
2022/01/05 09:47:03;;;;;;;2.73;2.20;;;3.50;99.90;2.50;97966;;;;554851;254;24110;-77
2022/01/05 09:49:34;;;;;;;3.83;1.93;;;3.50;99.90;2.50;97967;;;;552921;255;24180;-75
2022/01/05 09:52:05;;;;;;;4.73;2.77;;;3.50;99.90;2.60;97967;;;;553796;254;24075;-76
2022/01/05 09:54:35;;;;;;;6.03;2.50;;;3.50;99.90;2.70;97977;;;;556852;256;24174;-74
2022/01/05 09:57:05;;;;;;;5.73;2.27;;;3.80;99.90;2.80;97983;;;;552834;256;24146;-75
2022/01/05 09:59:35;;;;;;;5.50;2.33;;;3.70;99.90;2.90;97975;;;;554837;246;24146;-76
2022/01/05 10:02:02;;;;;;;4.97;1.83;;;3.80;99.90;2.90;97985;;;;556809;257;24237;-75
2022/01/05 10:04:27;;;;;;;6.73;2.73;;;3.90;99.90;3.00;97978;;;;538402;259;24148;-74
2022/01/05 10:06:55;;;;;;;4.23;1.47;;;3.90;99.90;3.10;97992;;;;542059;257;24163;-74
2022/01/05 10:09:24;;;;;;;3.87;2.23;;;4.00;99.90;3.00;97990;;;;554889;254;24118;-74
2022/01/05 10:11:52;;;;;;;7.73;2.20;;;4.00;99.90;3.00;97990;;;;541853;256;24211;-74
2022/01/05 10:14:20;;;;;;;9.10;2.10;;;3.90;99.90;2.80;97983;;;;554890;254;24129;-75
2022/01/05 10:17:06;;;;;;;4.03;2.10;;;3.80;99.90;2.60;98003;;;;541910;256;24243;-74
2022/01/05 10:19:34;;;;;;;2.30;2.10;;;3.70;99.90;2.50;98000;;;;563413;250;24134;-75
2022/01/05 10:22:06;;;;;;;5.90;2.53;;;3.50;99.90;2.50;98000;;;;553822;257;24215;-75
2022/01/05 10:24:45;;;;;;;2.53;2.20;;;3.50;99.90;2.50;98004;;;;555509;254;24148;-75
2022/01/05 10:27:17;;;;;;;4.17;2.40;;;3.50;99.90;2.60;97991;;;;555731;254;24134;-75
2022/01/05 10:29:50;;;;;;;2.53;2.10;;;3.50;99.90;2.60;97990;;;;555395;254;24187;-76
2022/01/05 10:32:22;;;;;;;5.67;2.63;;;3.50;99.90;2.60;97982;;;;555422;254;24228;-76
2022/01/05 10:35:01;;;;;;;7.07;2.57;;;3.50;99.90;2.60;97987;;;;551916;254;24113;-77
2022/01/05 10:37:26;;;;;;;3.03;2.10;;;3.50;99.90;2.50;97973;;;;563415;248;24106;-78
2022/01/05 10:40:14;;;;;;;2.00;1.70;;;3.40;99.90;2.40;97983;;;;549147;257;24146;-77
2022/01/05 10:42:41;;;;;;;4.07;1.83;;;3.30;99.90;2.30;97979;;;;555050;252;24144;-75
2022/01/05 10:45:09;;;;;;;2.90;2.13;;;3.20;99.90;2.20;97966;;;;555089;254;24150;-75
2022/01/05 10:47:36;;;;;;;7.23;2.67;;;3.10;99.90;2.10;97976;;;;563251;245;24126;-75
2022/01/05 10:50:04;;;;;;;5.67;2.30;;;3.00;99.90;2.00;97965;;;;557204;257;24139;-76
2022/01/05 10:52:32;;;;;;;2.67;1.80;;;3.00;99.90;2.00;97967;;;;553486;253;24152;-75
2022/01/05 10:55:13;;;;;;;7.27;1.60;;;2.90;99.90;2.00;97976;;;;555098;254;24161;-75
2022/01/05 10:57:56;;;;;;;2.63;2.37;;;2.90;99.90;2.00;97986;;;;554828;250;24135;-76
2022/01/05 11:00:41;;;;;;;8.73;3.07;;;2.90;99.90;2.00;97971;;;;561134;251;24132;-76
2022/01/05 11:03:27;;;;;;;10.87;3.63;;;2.90;99.90;2.10;97973;;;;549139;257;24137;-74
2022/01/05 11:06:10;;;;;;;4.90;2.17;;;3.00;99.90;2.10;97977;;;;538324;259;24208;-76
2022/01/05 11:08:56;;;;;;;4.10;1.90;;;3.00;99.90;2.10;97972;;;;562692;254;24190;-75
2022/01/05 11:11:42;;;;;;;5.00;2.20;;;3.10;99.90;2.20;97977;;;;555309;254;24117;-75
2022/01/05 11:14:15;;;;;;;3.53;1.70;;;3.10;99.90;2.10;97978;;;;563194;253;24120;-76
2022/01/05 11:16:49;;;;;;;5.80;2.07;;;3.10;99.90;2.10;97971;;;;556415;244;24187;-75
2022/01/05 11:19:36;;;;;;;4.17;2.37;;;3.00;99.90;2.10;97977;;;;553443;256;24177;-76
2022/01/05 11:22:05;;;;;;;8.80;2.30;;;3.00;99.90;2.00;97971;;;;555010;252;24122;-75
2022/01/05 11:24:34;;;;;;;8.33;2.27;;;3.00;99.90;2.00;97976;;;;555200;254;24131;-74
2022/01/05 11:27:02;;;;;;;4.90;1.83;;;3.00;99.90;2.00;97964;;;;549039;256;24161;-74
2022/01/05 11:29:33;;;;;;;6.10;1.73;;;2.90;99.90;2.00;97964;;;;538778;259;24169;-74
2022/01/05 11:31:58;;;;;;;2.27;1.60;;;2.90;99.90;1.90;97967;;;;549758;254;24094;-76
2022/01/05 11:34:29;;;;;;;2.93;1.53;;;2.90;99.90;1.90;97959;;;;553670;254;24105;-75
2022/01/05 11:37:02;;;;;;;2.97;1.53;;;2.90;99.90;1.90;97955;;;;550167;257;24166;-75
2022/01/05 11:39:26;;;;;;;4.03;2.07;;;2.90;99.90;1.90;97957;;;;545781;259;24192;-73
2022/01/05 11:41:55;;;;;;;3.13;1.60;;;2.80;99.90;1.90;97960;;;;555956;254;24103;-75